Time;durP1;ratioP1;P1;durP2;ratioP2;P2;SDS_P1;SDS_P2;PMS_P1;PMS_P2;Temp;Humidity;BMP_temperature;BMP_pressure;BME280_temperature;BME280_humidity;BME280_pressure;Samples;Min_cycle;Max_cycle;Signal;HPM_P1;HPM_P2
2021/05/13 00:01:21;;;;;;;10.68;8.27;;;10.10;99.90;;;;;;4961103;28;20099;-76
2021/05/13 00:03:51;;;;;;;10.73;7.75;;;10.20;99.90;;;;;;4942837;28;20563;-77
2021/05/13 00:06:16;;;;;;;10.75;8.00;;;10.20;99.90;;;;;;4960546;28;20681;-77
2021/05/13 00:08:43;;;;;;;10.18;8.13;;;10.10;99.90;;;;;;4957426;28;20079;-77
2021/05/13 00:11:10;;;;;;;10.02;7.60;;;10.10;99.90;;;;;;4956562;28;20173;-76
2021/05/13 00:13:37;;;;;;;9.18;7.65;;;10.10;99.90;;;;;;4953952;28;20079;-75
2021/05/13 00:16:03;;;;;;;12.40;7.97;;;10.10;99.90;;;;;;4962105;28;20072;-77
2021/05/13 00:18:29;;;;;;;10.73;7.95;;;10.20;99.90;;;;;;4956019;28;20086;-77
2021/05/13 00:20:56;;;;;;;13.68;9.48;;;10.10;99.90;;;;;;4959827;28;20103;-77
2021/05/13 00:23:21;;;;;;;9.50;8.20;;;10.10;99.90;;;;;;4965372;28;20444;-77
2021/05/13 00:25:49;;;;;;;11.02;8.15;;;10.10;99.90;;;;;;4955162;28;20095;-77
2021/05/13 00:28:15;;;;;;;9.98;8.05;;;10.10;99.90;;;;;;4946779;28;20072;-75
2021/05/13 00:30:41;;;;;;;12.60;8.52;;;10.20;99.90;;;;;;4963099;28;20097;-77
2021/05/13 00:33:07;;;;;;;9.88;7.80;;;10.20;99.90;;;;;;4971173;28;20548;-76
2021/05/13 00:35:33;;;;;;;12.70;8.50;;;10.20;99.90;;;;;;4960006;28;20107;-76
2021/05/13 00:37:58;;;;;;;11.95;8.95;;;10.10;99.90;;;;;;4951448;28;20109;-77
2021/05/13 00:40:24;;;;;;;10.57;9.05;;;10.20;99.90;;;;;;4954955;28;20107;-77
2021/05/13 00:42:51;;;;;;;13.57;9.30;;;10.10;99.90;;;;;;4950877;28;20183;-78
2021/05/13 00:45:18;;;;;;;11.05;8.77;;;10.10;99.90;;;;;;4950523;28;20079;-77
2021/05/13 00:50:22;;;;;;;11.85;8.45;;;10.10;99.90;;;;;;4964326;28;20111;-76
2021/05/13 00:52:48;;;;;;;14.45;9.35;;;10.10;99.90;;;;;;4955712;28;20106;-76
2021/05/13 00:55:16;;;;;;;11.30;8.63;;;10.10;99.90;;;;;;4952544;28;20154;-77
2021/05/13 00:57:45;;;;;;;13.95;9.82;;;10.20;99.90;;;;;;4955874;28;20090;-77
2021/05/13 01:00:51;;;;;;;14.77;9.85;;;10.10;99.90;;;;;;4962029;28;20516;-77
2021/05/13 01:03:04;;;;;;;10.82;8.85;;;10.10;99.90;;;;;;4952043;28;20111;-76
2021/05/13 01:05:31;;;;;;;10.88;9.52;;;10.00;99.90;;;;;;4953673;28;20094;-77
2021/05/13 01:08:01;;;;;;;12.02;8.70;;;10.00;99.90;;;;;;4956925;28;20091;-76
2021/05/13 01:10:28;;;;;;;11.55;8.57;;;10.10;99.90;;;;;;4966948;28;20560;-77
2021/05/13 01:12:57;;;;;;;12.30;7.70;;;10.10;99.90;;;;;;4968688;28;20111;-76
2021/05/13 01:17:59;;;;;;;14.02;8.55;;;10.10;99.90;;;;;;4962805;28;20149;-76
2021/05/13 01:20:28;;;;;;;10.68;8.35;;;10.10;99.90;;;;;;4954982;28;20092;-77
2021/05/13 01:22:56;;;;;;;11.70;8.60;;;10.20;99.90;;;;;;4961924;28;20135;-77
2021/05/13 01:25:22;;;;;;;11.25;8.00;;;10.20;99.90;;;;;;4966673;28;20075;-76
2021/05/13 01:27:47;;;;;;;9.90;7.82;;;10.30;99.90;;;;;;4953332;28;20129;-77
2021/05/13 01:30:16;;;;;;;10.35;7.88;;;10.20;99.90;;;;;;4970687;28;20087;-76
2021/05/13 01:32:42;;;;;;;9.98;8.25;;;10.20;99.90;;;;;;4971005;28;20087;-77
2021/05/13 01:35:09;;;;;;;11.40;8.13;;;10.20;99.90;;;;;;4960658;28;20083;-77
2021/05/13 01:37:35;;;;;;;12.07;9.00;;;10.00;99.90;;;;;;4952201;29;20072;-75
2021/05/13 01:40:00;;;;;;;9.65;7.90;;;10.20;99.90;;;;;;4954606;28;20099;-74
2021/05/13 01:42:26;;;;;;;10.05;7.57;;;10.00;99.90;;;;;;4958348;28;20118;-73
2021/05/13 01:44:51;;;;;;;9.27;7.57;;;10.00;99.90;;;;;;4952013;28;20079;-76
2021/05/13 01:47:17;;;;;;;10.55;7.72;;;10.00;99.90;;;;;;4952163;28;20078;-77
2021/05/13 01:49:42;;;;;;;10.20;7.30;;;10.00;99.90;;;;;;4952571;28;20104;-76
2021/05/13 01:52:08;;;;;;;9.02;7.28;;;10.10;99.90;;;;;;4961648;28;20089;-77
2021/05/13 01:54:34;;;;;;;11.63;7.00;;;10.10;99.90;;;;;;4971264;28;20114;-76
2021/05/13 01:57:04;;;;;;;10.77;8.70;;;10.10;99.90;;;;;;4939584;29;20104;-76
2021/05/13 01:59:30;;;;;;;10.70;7.18;;;10.10;99.90;;;;;;4961834;28;20091;-77
2021/05/13 02:01:57;;;;;;;11.43;7.82;;;10.10;99.90;;;;;;4971271;28;20111;-77
2021/05/13 02:04:23;;;;;;;10.38;7.40;;;10.10;99.90;;;;;;4953327;28;20217;-76
2021/05/13 02:06:48;;;;;;;9.25;7.05;;;10.10;99.90;;;;;;4956626;28;20530;-77
2021/05/13 02:09:14;;;;;;;10.75;7.63;;;10.10;99.90;;;;;;4956103;28;20084;-77
2021/05/13 02:11:39;;;;;;;10.07;7.40;;;10.00;99.90;;;;;;4958800;28;20099;-77
2021/05/13 02:14:05;;;;;;;11.27;7.28;;;9.90;99.90;;;;;;4960156;28;20087;-77
2021/05/13 02:16:31;;;;;;;12.98;8.70;;;9.90;99.90;;;;;;4959435;28;20083;-76
2021/05/13 02:18:56;;;;;;;10.68;8.55;;;10.00;99.90;;;;;;4962159;28;20079;-77
2021/05/13 02:21:22;;;;;;;11.38;7.40;;;10.10;99.90;;;;;;4945589;28;20096;-77
2021/05/13 02:23:48;;;;;;;8.07;6.68;;;10.00;99.90;;;;;;4956274;28;20496;-78
2021/05/13 02:26:14;;;;;;;12.68;8.38;;;10.00;99.90;;;;;;4968999;28;20071;-77
2021/05/13 02:28:39;;;;;;;9.15;7.20;;;9.90;99.90;;;;;;4971926;28;20067;-78
2021/05/13 02:31:05;;;;;;;9.48;7.03;;;9.90;99.90;;;;;;4962031;28;20084;-77
2021/05/13 02:33:31;;;;;;;9.90;7.68;;;9.80;99.90;;;;;;4953638;29;20079;-76
2021/05/13 02:35:56;;;;;;;11.75;7.45;;;9.70;99.90;;;;;;4953948;28;20088;-77
2021/05/13 02:38:22;;;;;;;7.72;6.82;;;9.70;99.90;;;;;;4962678;28;20084;-76
2021/05/13 02:40:47;;;;;;;10.00;7.20;;;9.80;99.90;;;;;;4967367;28;20125;-77
2021/05/13 02:43:13;;;;;;;10.45;8.48;;;9.80;99.90;;;;;;4972054;28;20159;-77
2021/05/13 02:45:39;;;;;;;10.93;8.52;;;9.80;99.90;;;;;;4970153;28;20634;-77
2021/05/13 02:48:04;;;;;;;9.57;7.75;;;9.80;99.90;;;;;;4971276;28;20102;-77
2021/05/13 02:50:30;;;;;;;9.55;7.20;;;9.80;99.90;;;;;;4950296;28;20100;-77
2021/05/13 02:52:55;;;;;;;9.40;7.07;;;9.80;99.90;;;;;;4965413;28;20086;-77
2021/05/13 02:55:22;;;;;;;8.80;7.35;;;9.80;99.90;;;;;;4951795;28;20083;-76
2021/05/13 02:57:49;;;;;;;10.35;7.55;;;9.90;99.90;;;;;;4954086;28;20448;-78
2021/05/13 03:03:02;;;;;;;11.43;7.32;;;9.70;99.90;;;;;;4973207;28;20111;-77
2021/05/13 03:05:28;;;;;;;10.30;7.50;;;9.70;99.90;;;;;;4952723;28;20504;-75
2021/05/13 03:08:04;;;;;;;10.25;7.28;;;9.70;99.90;;;;;;4940635;28;20084;-76
2021/05/13 03:10:43;;;;;;;10.25;7.53;;;9.70;99.90;;;;;;4960441;28;20095;-76
2021/05/13 03:13:11;;;;;;;10.45;7.72;;;9.70;99.90;;;;;;4952265;28;20170;-77
2021/05/13 03:15:37;;;;;;;10.32;7.45;;;9.70;99.90;;;;;;4935139;29;20087;-77
2021/05/13 03:18:03;;;;;;;10.40;8.23;;;9.70;99.90;;;;;;4967414;28;20080;-77
2021/05/13 03:20:35;;;;;;;9.75;7.80;;;9.70;99.90;;;;;;4952710;28;20105;-76
2021/05/13 03:23:03;;;;;;;8.93;7.22;;;9.80;99.90;;;;;;4951192;28;20123;-77
2021/05/13 03:25:34;;;;;;;11.88;8.02;;;9.80;99.90;;;;;;4934665;29;20126;-76
2021/05/13 03:28:09;;;;;;;12.32;8.05;;;9.80;99.90;;;;;;4948866;28;20072;-76
2021/05/13 03:30:45;;;;;;;10.60;8.07;;;9.80;99.90;;;;;;4961887;28;20205;-75
2021/05/13 03:33:12;;;;;;;10.65;7.63;;;9.70;99.90;;;;;;4969996;28;20126;-77
2021/05/13 03:35:38;;;;;;;11.27;8.93;;;9.70;99.90;;;;;;4955441;28;20119;-75
2021/05/13 03:38:06;;;;;;;13.98;9.27;;;9.80;99.90;;;;;;4967698;28;20556;-75
2021/05/13 03:40:32;;;;;;;13.55;9.35;;;9.80;99.90;;;;;;4959013;28;20099;-77
2021/05/13 03:42:58;;;;;;;10.57;8.80;;;9.90;99.90;;;;;;4963722;28;20109;-77
2021/05/13 03:45:24;;;;;;;12.32;8.98;;;9.90;99.90;;;;;;4956562;28;20145;-76
2021/05/13 03:47:50;;;;;;;14.10;10.30;;;9.80;99.90;;;;;;4957840;28;20071;-77
2021/05/13 03:50:16;;;;;;;12.80;9.55;;;9.80;99.90;;;;;;4956296;28;20222;-77
2021/05/13 03:52:42;;;;;;;13.32;8.85;;;9.90;99.90;;;;;;4952112;28;20090;-77
2021/05/13 03:55:08;;;;;;;11.85;9.50;;;9.80;99.90;;;;;;4952279;29;20510;-77
2021/05/13 03:57:34;;;;;;;16.30;10.60;;;9.80;99.90;;;;;;4959790;28;20118;-77
2021/05/13 04:00:04;;;;;;;11.00;8.93;;;9.90;99.90;;;;;;4957079;28;20120;-76
2021/05/13 04:02:33;;;;;;;13.48;9.35;;;10.00;99.90;;;;;;4956923;28;20169;-79
2021/05/13 04:04:59;;;;;;;13.77;9.80;;;9.90;99.90;;;;;;4948464;28;20100;-77
2021/05/13 04:07:35;;;;;;;13.93;10.05;;;9.90;99.90;;;;;;4964566;28;20068;-77
2021/05/13 04:10:04;;;;;;;14.68;10.18;;;9.90;99.90;;;;;;4967694;28;20129;-77
2021/05/13 04:12:30;;;;;;;11.90;8.82;;;10.00;99.90;;;;;;4952422;29;20167;-77
2021/05/13 04:14:57;;;;;;;13.10;9.52;;;10.00;99.90;;;;;;4957612;28;20167;-77
2021/05/13 04:17:23;;;;;;;14.52;10.07;;;10.00;99.90;;;;;;4956452;28;20658;-75
2021/05/13 04:19:48;;;;;;;14.60;10.23;;;10.00;99.90;;;;;;4964974;28;20099;-77
2021/05/13 04:22:15;;;;;;;11.18;8.88;;;10.00;99.90;;;;;;4954589;28;20170;-76
2021/05/13 04:24:41;;;;;;;12.95;9.55;;;10.00;99.90;;;;;;4960106;28;20076;-76
2021/05/13 04:27:07;;;;;;;12.52;10.05;;;9.90;99.90;;;;;;4951913;28;20099;-76
2021/05/13 04:29:32;;;;;;;12.95;9.10;;;9.90;99.90;;;;;;4984985;28;20092;-77
2021/05/13 04:31:58;;;;;;;14.35;10.55;;;10.00;99.90;;;;;;4951193;28;20129;-77
2021/05/13 04:34:24;;;;;;;12.88;10.15;;;10.00;99.90;;;;;;4969438;28;20503;-77
2021/05/13 04:36:50;;;;;;;11.85;10.00;;;10.00;99.90;;;;;;4955337;28;20082;-77
2021/05/13 04:39:15;;;;;;;13.75;10.32;;;10.00;99.90;;;;;;4955616;28;20105;-76
2021/05/13 04:41:41;;;;;;;11.70;9.15;;;10.00;99.90;;;;;;4956545;28;20102;-77
2021/05/13 04:44:07;;;;;;;12.93;10.15;;;10.00;99.90;;;;;;4968346;28;20084;-76
2021/05/13 04:46:34;;;;;;;14.45;9.75;;;10.00;99.90;;;;;;4963585;28;20094;-77
2021/05/13 04:51:31;;;;;;;13.07;9.50;;;10.10;99.90;;;;;;4962639;28;20191;-77
2021/05/13 04:53:58;;;;;;;16.60;10.43;;;10.10;99.90;;;;;;4949153;28;20580;-77
2021/05/13 04:56:24;;;;;;;15.23;10.45;;;10.10;99.90;;;;;;4959256;28;20154;-76
2021/05/13 04:58:50;;;;;;;13.20;10.50;;;10.10;99.90;;;;;;4961041;28;20068;-77
2021/05/13 05:01:16;;;;;;;13.27;10.00;;;10.10;99.90;;;;;;4944467;28;20175;-77
2021/05/13 05:03:42;;;;;;;12.77;10.10;;;10.00;99.90;;;;;;4950876;29;20594;-76
2021/05/13 05:06:10;;;;;;;16.23;11.30;;;10.00;99.90;;;;;;4955793;28;20072;-77
2021/05/13 05:08:36;;;;;;;13.63;10.15;;;10.10;99.90;;;;;;4991822;28;20158;-77
2021/05/13 05:11:02;;;;;;;13.43;10.30;;;10.10;99.90;;;;;;4966562;28;20102;-77
2021/05/13 05:13:29;;;;;;;15.63;11.27;;;10.10;99.90;;;;;;4955608;28;20083;-77
2021/05/13 05:15:55;;;;;;;13.75;10.57;;;10.10;99.90;;;;;;4968333;28;20110;-77
2021/05/13 05:18:22;;;;;;;12.63;10.18;;;10.10;99.90;;;;;;4955169;28;20119;-77
2021/05/13 05:20:49;;;;;;;14.55;9.93;;;10.10;99.90;;;;;;4962045;28;20146;-77
2021/05/13 05:23:14;;;;;;;14.20;11.63;;;10.10;99.90;;;;;;4955196;28;20098;-77
2021/05/13 05:25:40;;;;;;;14.38;10.23;;;10.10;99.90;;;;;;4955494;28;20072;-77
2021/05/13 05:28:07;;;;;;;13.52;10.05;;;10.20;99.90;;;;;;4966589;28;20088;-77
2021/05/13 05:30:34;;;;;;;12.50;9.82;;;10.20;99.90;;;;;;4965415;28;20615;-77
2021/05/13 05:33:01;;;;;;;11.45;8.65;;;10.20;99.90;;;;;;4968820;28;20135;-77
2021/05/13 05:35:26;;;;;;;13.60;10.73;;;10.20;99.90;;;;;;4950404;28;20083;-77
2021/05/13 05:37:53;;;;;;;12.68;9.90;;;10.20;99.90;;;;;;4973096;28;20150;-77
2021/05/13 05:40:20;;;;;;;14.50;9.70;;;10.10;99.90;;;;;;4954143;28;20448;-77
2021/05/13 05:42:46;;;;;;;12.50;9.07;;;10.10;99.90;;;;;;4959297;28;20096;-77
2021/05/13 05:45:12;;;;;;;11.88;9.85;;;10.20;99.90;;;;;;4970755;28;20087;-77
2021/05/13 05:47:38;;;;;;;12.65;9.52;;;10.20;99.90;;;;;;4952916;28;20447;-77
2021/05/13 05:50:04;;;;;;;11.60;9.32;;;10.20;99.90;;;;;;4970844;28;20091;-77
2021/05/13 05:52:29;;;;;;;12.70;9.23;;;10.10;99.90;;;;;;4965661;28;20084;-77
2021/05/13 05:54:56;;;;;;;13.68;10.40;;;10.20;99.90;;;;;;4940960;28;20504;-77
2021/05/13 05:57:22;;;;;;;12.88;9.52;;;10.10;99.90;;;;;;4956842;28;20158;-77
2021/05/13 05:59:47;;;;;;;15.68;10.05;;;10.10;99.90;;;;;;4963969;28;20179;-77
2021/05/13 06:02:13;;;;;;;13.43;9.70;;;10.10;99.90;;;;;;4953043;28;20096;-77
2021/05/13 06:04:38;;;;;;;14.80;10.25;;;10.20;99.90;;;;;;4953867;28;20071;-77
2021/05/13 06:07:06;;;;;;;12.82;10.52;;;10.20;99.90;;;;;;4960054;28;20079;-77
2021/05/13 06:09:31;;;;;;;13.32;10.00;;;10.20;99.90;;;;;;4966328;28;20064;-77
2021/05/13 06:11:57;;;;;;;12.80;9.45;;;10.20;99.90;;;;;;4963414;28;20149;-77
2021/05/13 06:14:23;;;;;;;11.95;9.07;;;10.20;99.90;;;;;;4956271;28;20965;-77
2021/05/13 06:16:48;;;;;;;14.40;9.35;;;10.20;99.90;;;;;;4956089;28;20474;-77
2021/05/13 06:19:14;;;;;;;12.27;9.07;;;10.30;99.90;;;;;;4959097;28;20079;-76
2021/05/13 06:21:39;;;;;;;11.07;9.05;;;10.20;99.90;;;;;;4966816;28;20099;-76
2021/05/13 06:24:08;;;;;;;12.13;9.50;;;10.30;99.90;;;;;;4959185;28;20119;-77
2021/05/13 06:26:34;;;;;;;12.63;9.80;;;10.30;99.90;;;;;;4966418;28;20079;-77
2021/05/13 06:29:02;;;;;;;11.55;8.85;;;10.30;99.90;;;;;;4972494;28;20547;-77
2021/05/13 06:31:27;;;;;;;13.85;9.57;;;10.30;99.90;;;;;;4958473;28;20094;-77
2021/05/13 06:33:53;;;;;;;11.43;9.32;;;10.40;99.90;;;;;;4970044;28;20080;-77
2021/05/13 06:36:18;;;;;;;14.02;8.77;;;10.30;99.90;;;;;;4968033;28;20099;-77
2021/05/13 06:38:45;;;;;;;11.65;8.70;;;10.40;99.90;;;;;;4954863;28;20089;-76
2021/05/13 06:41:11;;;;;;;12.90;8.32;;;10.40;99.90;;;;;;4969284;28;20659;-77
2021/05/13 06:43:37;;;;;;;11.15;8.18;;;10.40;99.90;;;;;;4953396;28;20088;-77
2021/05/13 06:46:04;;;;;;;12.02;8.73;;;10.40;99.90;;;;;;4965872;28;20098;-77
2021/05/13 06:48:30;;;;;;;10.60;8.02;;;10.50;99.90;;;;;;4965345;28;20544;-77
2021/05/13 06:50:56;;;;;;;10.90;8.70;;;10.50;99.90;;;;;;4964755;28;20091;-77
2021/05/13 06:53:22;;;;;;;12.40;8.95;;;10.50;99.90;;;;;;4964175;28;20087;-77
2021/05/13 06:55:52;;;;;;;10.23;8.05;;;10.50;99.90;;;;;;4968720;28;20094;-77
2021/05/13 06:58:19;;;;;;;14.95;9.02;;;10.40;99.90;;;;;;4951135;28;20071;-77
2021/05/13 07:00:45;;;;;;;11.10;8.85;;;10.40;99.90;;;;;;4960880;28;20091;-78
2021/05/13 07:03:10;;;;;;;13.40;8.65;;;10.50;99.90;;;;;;4957583;28;20102;-77
2021/05/13 07:05:36;;;;;;;12.13;8.80;;;10.40;99.90;;;;;;4962347;28;20498;-77
2021/05/13 07:08:01;;;;;;;10.65;8.60;;;10.40;99.90;;;;;;4970464;28;20079;-80
2021/05/13 07:10:27;;;;;;;9.20;7.70;;;10.40;99.90;;;;;;4952388;28;20095;-77
2021/05/13 07:12:53;;;;;;;12.45;9.23;;;10.40;99.90;;;;;;4968904;28;20504;-83
2021/05/13 07:15:18;;;;;;;12.82;8.63;;;10.30;99.90;;;;;;4950351;28;20102;-77
2021/05/13 07:17:44;;;;;;;11.05;9.02;;;10.30;99.90;;;;;;4961974;28;20162;-77
2021/05/13 07:20:10;;;;;;;12.20;8.73;;;10.40;99.90;;;;;;4964308;28;20099;-78
2021/05/13 07:22:36;;;;;;;11.57;9.15;;;10.40;99.90;;;;;;4972060;28;20095;-77
2021/05/13 07:25:02;;;;;;;13.77;8.90;;;10.50;99.90;;;;;;4947259;28;20079;-76
2021/05/13 07:27:27;;;;;;;10.18;8.40;;;10.50;99.90;;;;;;4963569;28;21509;-76
2021/05/13 07:29:53;;;;;;;11.23;8.20;;;10.50;99.90;;;;;;4969922;28;20552;-76
2021/05/13 07:32:18;;;;;;;12.48;8.38;;;10.60;99.90;;;;;;4959194;28;20111;-77
2021/05/13 07:34:44;;;;;;;11.73;8.90;;;10.60;99.90;;;;;;4963761;28;20083;-77
2021/05/13 07:37:09;;;;;;;12.70;8.38;;;10.60;99.90;;;;;;4960827;28;20083;-76
2021/05/13 07:39:35;;;;;;;11.55;8.60;;;10.50;99.90;;;;;;4951976;28;20091;-76
2021/05/13 07:42:01;;;;;;;11.82;8.60;;;10.60;99.90;;;;;;4957614;28;20091;-76
2021/05/13 07:44:27;;;;;;;12.48;9.57;;;10.60;99.90;;;;;;4941523;28;20549;-77
2021/05/13 07:46:54;;;;;;;13.85;8.73;;;10.70;99.90;;;;;;4957817;28;20067;-77
2021/05/13 07:49:20;;;;;;;10.40;8.15;;;10.70;99.90;;;;;;4958933;28;20075;-77
2021/05/13 07:51:45;;;;;;;11.48;7.60;;;10.70;99.90;;;;;;4959292;28;20099;-77
2021/05/13 07:54:11;;;;;;;11.00;8.25;;;10.70;99.90;;;;;;4961929;28;20076;-76
2021/05/13 07:56:37;;;;;;;11.23;7.75;;;10.70;99.90;;;;;;4962145;28;20125;-76
2021/05/13 07:59:03;;;;;;;11.30;7.60;;;10.80;99.90;;;;;;4964921;28;20076;-76
2021/05/13 08:01:29;;;;;;;10.00;8.00;;;10.80;99.90;;;;;;4951410;28;20091;-77
2021/05/13 08:03:54;;;;;;;11.88;8.93;;;10.90;99.90;;;;;;4953894;28;20072;-78
2021/05/13 08:06:20;;;;;;;10.98;8.32;;;10.90;99.90;;;;;;4953251;28;20628;-77
2021/05/13 08:08:45;;;;;;;9.63;7.30;;;10.90;99.90;;;;;;4947144;28;20455;-76
2021/05/13 08:11:11;;;;;;;10.43;8.15;;;10.90;99.90;;;;;;4951278;28;20090;-77
2021/05/13 08:13:37;;;;;;;11.05;7.38;;;10.90;99.90;;;;;;4943349;28;20534;-78
2021/05/13 08:16:03;;;;;;;11.93;7.82;;;10.90;99.90;;;;;;4969874;28;20087;-78
2021/05/13 08:18:28;;;;;;;12.75;8.02;;;10.90;99.90;;;;;;4958164;28;20083;-79
2021/05/13 08:20:54;;;;;;;11.77;7.95;;;10.80;99.90;;;;;;4949672;28;20091;-78
2021/05/13 08:23:20;;;;;;;11.15;9.15;;;10.90;99.90;;;;;;4964670;28;20518;-77
2021/05/13 08:25:45;;;;;;;9.98;8.50;;;10.90;99.90;;;;;;4967765;28;20129;-77
2021/05/13 08:28:11;;;;;;;11.35;7.57;;;10.90;99.90;;;;;;4970167;28;20106;-76
2021/05/13 08:30:37;;;;;;;8.70;7.05;;;10.90;99.90;;;;;;4960957;28;20106;-76
2021/05/13 08:33:02;;;;;;;13.35;8.18;;;10.90;99.90;;;;;;4966074;28;20087;-76
2021/05/13 08:35:28;;;;;;;11.88;8.07;;;10.90;99.90;;;;;;4965096;28;20072;-76
2021/05/13 08:37:54;;;;;;;11.65;8.85;;;11.00;99.90;;;;;;4964355;28;20083;-77
2021/05/13 08:40:20;;;;;;;10.70;8.18;;;11.10;99.90;;;;;;4965905;28;20467;-76
2021/05/13 08:42:46;;;;;;;9.52;7.70;;;11.10;99.90;;;;;;4965422;28;20141;-77
2021/05/13 08:45:12;;;;;;;9.68;7.25;;;11.10;99.90;;;;;;4963103;28;20092;-76
2021/05/13 08:47:41;;;;;;;10.50;7.45;;;11.20;99.90;;;;;;4957025;28;20068;-76
2021/05/13 08:50:08;;;;;;;14.15;8.65;;;11.20;99.90;;;;;;4954963;28;20087;-78
2021/05/13 08:52:33;;;;;;;11.20;8.55;;;11.20;99.90;;;;;;4965293;28;20126;-79
2021/05/13 08:55:01;;;;;;;9.65;7.30;;;11.20;99.90;;;;;;4952609;28;20083;-77
2021/05/13 08:57:27;;;;;;;10.88;8.10;;;11.20;99.90;;;;;;4963095;28;21359;-77
2021/05/13 08:59:54;;;;;;;12.85;7.50;;;11.10;99.90;;;;;;4954533;28;20186;-77
2021/05/13 09:02:20;;;;;;;10.73;7.50;;;11.20;99.90;;;;;;4964063;28;20091;-84
2021/05/13 09:04:56;;;;;;;10.07;7.07;;;11.20;99.90;;;;;;4951668;28;20568;-83
2021/05/13 09:07:32;;;;;;;8.80;7.25;;;11.20;99.90;;;;;;4965960;28;20078;-81
2021/05/13 09:10:08;;;;;;;12.80;8.30;;;11.20;99.90;;;;;;4948470;28;20099;-82
2021/05/13 09:12:39;;;;;;;9.25;7.07;;;11.30;99.90;;;;;;4952070;28;20082;-80
2021/05/13 09:15:14;;;;;;;8.60;6.50;;;11.20;99.90;;;;;;4955964;28;20087;-78
2021/05/13 09:17:45;;;;;;;12.88;7.32;;;11.20;99.90;;;;;;4968710;28;20114;-84
2021/05/13 09:20:28;;;;;;;12.15;7.50;;;11.30;99.90;;;;;;4952104;28;20593;-76
2021/05/13 09:23:16;;;;;;;8.85;7.53;;;11.30;99.90;;;;;;4957948;28;20182;-79
2021/05/13 09:26:03;;;;;;;11.85;7.65;;;11.50;99.90;;;;;;4960401;28;20063;-76
2021/05/13 09:28:28;;;;;;;8.40;7.15;;;11.40;99.90;;;;;;4965279;28;20687;-77
2021/05/13 09:30:54;;;;;;;11.10;8.05;;;11.40;99.90;;;;;;4965572;28;20101;-77
2021/05/13 09:33:30;;;;;;;10.07;7.82;;;11.50;99.90;;;;;;4969418;28;20174;-77
2021/05/13 09:35:56;;;;;;;12.00;7.25;;;11.50;99.90;;;;;;4959607;28;20067;-77
2021/05/13 09:38:34;;;;;;;9.27;7.10;;;11.60;99.90;;;;;;4958604;28;20173;-77
2021/05/13 09:41:00;;;;;;;8.73;7.32;;;11.60;99.90;;;;;;4966568;28;20444;-75
2021/05/13 09:43:33;;;;;;;9.38;7.45;;;11.70;99.90;;;;;;4965012;28;20080;-75
2021/05/13 09:46:04;;;;;;;12.30;8.20;;;11.70;99.90;;;;;;4966027;28;20087;-76
2021/05/13 09:48:32;;;;;;;8.90;7.13;;;11.70;99.90;;;;;;4947850;28;20079;-78
2021/05/13 09:51:19;;;;;;;10.07;7.00;;;11.70;99.90;;;;;;4964403;28;20103;-77
2021/05/13 09:53:46;;;;;;;10.35;7.05;;;11.60;99.90;;;;;;4967347;28;20560;-76
2021/05/13 09:56:26;;;;;;;7.10;6.10;;;11.60;99.90;;;;;;4969842;28;20090;-76
2021/05/13 09:58:52;;;;;;;8.57;6.07;;;11.60;99.90;;;;;;4968938;28;20063;-76
2021/05/13 10:01:19;;;;;;;10.25;6.20;;;11.70;99.90;;;;;;4960247;28;20872;-76
2021/05/13 10:03:45;;;;;;;10.68;6.75;;;11.70;99.90;;;;;;4950400;28;20079;-76
2021/05/13 10:06:11;;;;;;;9.13;6.95;;;11.80;99.90;;;;;;4949653;28;20067;-77
2021/05/13 10:08:38;;;;;;;8.73;6.57;;;11.70;99.90;;;;;;4963711;28;20083;-76
2021/05/13 10:11:06;;;;;;;7.45;6.63;;;11.80;99.90;;;;;;4961933;28;20110;-75
2021/05/13 10:13:33;;;;;;;9.43;6.20;;;11.80;99.90;;;;;;4963086;28;20080;-75
2021/05/13 10:16:00;;;;;;;9.45;6.43;;;12.00;99.90;;;;;;4968065;28;20527;-75
2021/05/13 10:18:35;;;;;;;10.98;6.80;;;12.00;99.90;;;;;;4966780;28;20083;-76
2021/05/13 10:21:05;;;;;;;7.85;5.80;;;11.90;99.90;;;;;;4969784;28;20173;-76
2021/05/13 10:23:32;;;;;;;7.25;6.40;;;12.00;99.90;;;;;;4970786;28;20091;-77
2021/05/13 10:25:58;;;;;;;6.97;5.72;;;11.90;99.90;;;;;;4968352;28;20178;-76
2021/05/13 10:28:28;;;;;;;7.80;5.90;;;11.90;99.90;;;;;;4948512;28;20211;-76
2021/05/13 10:31:03;;;;;;;7.25;5.53;;;12.00;99.90;;;;;;4965994;28;20119;-78
2021/05/13 10:33:50;;;;;;;7.47;5.63;;;12.00;99.90;;;;;;4963679;28;20090;-76
2021/05/13 10:36:17;;;;;;;8.68;5.70;;;12.10;99.90;;;;;;4963268;28;20110;-76
2021/05/13 10:39:11;;;;;;;6.45;5.70;;;12.10;99.90;;;;;;4939679;28;20182;-75
2021/05/13 10:41:41;;;;;;;7.85;5.53;;;12.10;99.90;;;;;;4967497;28;20130;-77
2021/05/13 10:44:09;;;;;;;7.80;5.47;;;12.20;99.90;;;;;;4970985;28;20075;-77
2021/05/13 10:46:39;;;;;;;7.63;5.10;;;12.20;99.90;;;;;;4969970;28;20124;-77
2021/05/13 10:49:15;;;;;;;8.75;5.22;;;12.20;99.90;;;;;;4967975;28;20897;-77
2021/05/13 10:51:41;;;;;;;7.70;5.70;;;12.20;99.90;;;;;;4954569;28;20091;-76
2021/05/13 10:54:07;;;;;;;6.25;5.25;;;12.30;99.90;;;;;;4964723;28;20609;-76
2021/05/13 10:56:35;;;;;;;8.35;5.30;;;12.20;99.90;;;;;;4967215;28;20090;-78
2021/05/13 10:59:12;;;;;;;8.38;4.72;;;12.30;99.90;;;;;;4966864;28;20397;-77
2021/05/13 11:01:49;;;;;;;8.20;4.40;;;12.30;99.90;;;;;;4966289;28;20087;-77
2021/05/13 11:04:20;;;;;;;7.55;5.22;;;12.30;99.90;;;;;;4966344;28;20607;-77
2021/05/13 11:06:59;;;;;;;8.55;5.30;;;12.30;99.90;;;;;;4966952;28;20138;-79
2021/05/13 11:09:38;;;;;;;6.80;4.97;;;12.30;99.90;;;;;;4969059;28;20068;-78
2021/05/13 11:12:16;;;;;;;8.20;4.55;;;12.30;99.90;;;;;;4965791;28;20162;-77
2021/05/13 11:15:10;;;;;;;6.78;5.40;;;12.20;99.90;;;;;;4962928;28;20126;-78
2021/05/13 11:20:38;;;;;;;9.48;5.90;;;12.20;99.90;;;;;;4970380;28;20668;-77
2021/05/13 11:23:10;;;;;;;7.25;5.55;;;12.00;99.90;;;;;;4954813;28;20581;-78
2021/05/13 11:25:40;;;;;;;5.97;4.90;;;11.90;99.90;;;;;;4966384;28;20456;-77
2021/05/13 11:28:32;;;;;;;8.85;6.40;;;11.90;99.90;;;;;;4957498;28;20081;-77
2021/05/13 11:31:07;;;;;;;10.18;5.82;;;11.80;99.90;;;;;;4953201;28;20801;-77
2021/05/13 11:33:45;;;;;;;8.20;6.18;;;11.80;99.90;;;;;;4962583;28;20071;-77
2021/05/13 11:36:16;;;;;;;12.23;6.82;;;11.80;99.90;;;;;;4958104;28;20064;-82
2021/05/13 11:38:42;;;;;;;8.82;4.35;;;11.60;99.90;;;;;;4959950;28;20098;-83
2021/05/13 11:41:08;;;;;;;5.75;3.95;;;11.60;99.90;;;;;;4964566;28;20104;-80
2021/05/13 11:43:36;;;;;;;6.57;5.30;;;11.60;99.90;;;;;;4958694;28;20122;-79
2021/05/13 11:46:11;;;;;;;5.68;4.30;;;11.80;99.90;;;;;;4954795;28;20075;-78
2021/05/13 11:48:39;;;;;;;7.13;4.10;;;11.80;99.90;;;;;;4947196;28;20550;-78
2021/05/13 11:51:12;;;;;;;5.07;4.15;;;11.80;99.90;;;;;;4964861;28;20083;-78
2021/05/13 11:53:43;;;;;;;4.60;4.20;;;11.70;99.90;;;;;;4963205;28;20142;-77
2021/05/13 11:56:10;;;;;;;8.43;5.05;;;11.90;99.90;;;;;;4964967;28;20083;-78
2021/05/13 11:58:51;;;;;;;6.47;4.30;;;11.90;99.90;;;;;;4953508;28;20078;-77
2021/05/13 12:01:38;;;;;;;5.72;4.95;;;12.10;99.90;;;;;;4963851;28;20098;-78
2021/05/13 12:04:04;;;;;;;6.13;4.50;;;12.00;99.90;;;;;;4952678;28;20086;-78
2021/05/13 12:06:42;;;;;;;11.88;6.18;;;12.00;99.90;;;;;;4953152;28;20079;-77
2021/05/13 12:09:08;;;;;;;6.78;4.32;;;11.90;99.90;;;;;;4950190;28;20539;-78
2021/05/13 12:11:34;;;;;;;9.05;5.45;;;11.80;99.90;;;;;;4965416;28;20095;-78
2021/05/13 12:14:00;;;;;;;6.65;5.15;;;11.90;99.90;;;;;;4950265;28;20110;-78
2021/05/13 12:16:27;;;;;;;7.47;6.13;;;11.90;99.90;;;;;;4964428;28;20099;-78
2021/05/13 12:18:56;;;;;;;8.68;5.72;;;11.90;99.90;;;;;;4959087;28;20575;-78
2021/05/13 12:21:22;;;;;;;7.75;5.22;;;11.90;99.90;;;;;;4942874;29;20087;-78
2021/05/13 12:23:49;;;;;;;7.28;5.10;;;12.00;99.90;;;;;;4934809;29;20110;-77
2021/05/13 12:26:24;;;;;;;6.15;5.25;;;11.90;99.90;;;;;;4962751;28;20072;-77
2021/05/13 12:28:50;;;;;;;8.25;5.47;;;11.90;99.90;;;;;;4972093;28;20149;-78
2021/05/13 12:31:30;;;;;;;5.18;4.68;;;11.90;99.90;;;;;;4955382;28;20094;-78
2021/05/13 12:33:57;;;;;;;4.82;4.10;;;11.90;99.90;;;;;;4969905;28;20585;-78
2021/05/13 12:36:23;;;;;;;8.95;4.50;;;11.90;99.90;;;;;;4962193;28;20145;-77
2021/05/13 12:38:49;;;;;;;6.25;4.03;;;11.80;99.90;;;;;;4958253;28;21389;-76
2021/05/13 12:41:16;;;;;;;5.28;3.80;;;11.80;99.90;;;;;;4965138;28;20106;-77
2021/05/13 12:43:43;;;;;;;6.30;4.07;;;11.80;99.90;;;;;;4959684;28;20087;-83
2021/05/13 12:46:45;;;;;;;7.25;4.38;;;11.90;99.90;;;;;;4938232;28;20074;-77
2021/05/13 12:49:25;;;;;;;6.53;4.13;;;12.00;99.90;;;;;;4963027;28;20106;-74
2021/05/13 12:52:11;;;;;;;4.40;3.97;;;11.90;99.90;;;;;;4962162;28;20102;-74
2021/05/13 12:54:41;;;;;;;7.43;3.65;;;11.90;99.90;;;;;;4950375;28;20079;-73
2021/05/13 12:57:19;;;;;;;5.63;3.58;;;12.00;99.90;;;;;;4966645;28;20813;-75
2021/05/13 12:59:51;;;;;;;6.60;2.67;;;12.10;99.90;;;;;;4964586;28;20083;-74